createdAt,value
2018-09-21T06:38:17.886Z,39.38
2018-09-21T06:39:17.757Z,39.38
2018-09-21T06:41:11.275Z,39.38
2018-09-21T06:42:11.099Z,39.38
2018-09-21T06:44:04.584Z,39.38
2018-09-21T06:45:04.539Z,45.00
2018-09-21T06:46:57.496Z,45.00
2018-09-21T06:47:57.489Z,45.00
2018-09-21T06:49:51.194Z,45.00
2018-09-21T06:50:51.629Z,45.00
2018-09-21T06:52:44.431Z,50.63
2018-09-21T06:53:44.544Z,50.63
2018-09-21T06:55:36.855Z,50.63
2018-09-21T06:56:36.845Z,50.63
2018-09-21T06:58:29.680Z,56.25
2018-09-21T06:59:29.740Z,56.25
2018-09-21T07:01:23.105Z,56.25
2018-09-21T07:02:23.167Z,56.25
2018-09-21T07:04:17.439Z,56.25
2018-09-21T07:05:16.460Z,56.25
2018-09-21T07:07:09.321Z,56.25
2018-09-21T07:08:09.360Z,56.25
2018-09-21T07:10:03.120Z,61.88
2018-09-21T07:11:02.813Z,61.88
2018-09-21T07:12:57.767Z,78.75
2018-09-21T07:13:57.737Z,90.00
2018-09-21T07:15:50.665Z,185.63
2018-09-21T07:16:49.954Z,146.25
2018-09-21T07:18:42.898Z,320.63
2018-09-21T07:19:42.837Z,309.38
2018-09-21T07:21:36.923Z,382.50
2018-09-21T07:22:35.758Z,258.75
2018-09-21T07:24:29.272Z,315.00
2018-09-21T07:25:28.622Z,241.88
2018-09-21T07:27:22.142Z,236.25
2018-09-21T07:28:23.132Z,208.13
2018-09-21T07:30:15.509Z,883.13
2018-09-21T07:31:15.458Z,832.50
2018-09-21T07:33:08.416Z,1051.88
2018-09-21T07:34:09.306Z,1096.88
2018-09-21T07:36:01.202Z,455.63
2018-09-21T07:37:01.329Z,1383.75
2018-09-21T07:38:01.842Z,1400.63
2018-09-21T07:39:02.766Z,213.75
2018-09-21T07:40:02.322Z,129.38
2018-09-21T07:41:01.292Z,106.88
2018-09-21T07:42:01.880Z,95.63
2018-09-21T07:43:01.335Z,90.00
2018-09-21T07:44:01.209Z,90.00
2018-09-21T07:45:01.357Z,90.00
2018-09-21T07:46:02.328Z,95.63
2018-09-21T07:47:01.360Z,106.88
2018-09-21T07:48:02.219Z,112.50
2018-09-21T07:49:01.352Z,112.50
2018-09-21T07:50:00.904Z,123.75
2018-09-21T07:51:00.913Z,129.38
2018-09-21T07:52:00.920Z,123.75
2018-09-21T07:53:00.925Z,129.38
2018-09-21T07:54:00.966Z,151.88
2018-09-21T07:55:00.954Z,151.88
2018-09-21T07:56:00.964Z,191.25
2018-09-21T07:57:00.976Z,146.25
2018-09-21T07:58:00.951Z,140.63
2018-09-21T07:59:00.980Z,146.25
2018-09-21T08:00:00.965Z,146.25
2018-09-21T08:01:00.969Z,146.25
2018-09-21T08:02:00.968Z,157.50
2018-09-21T08:03:00.981Z,185.63
2018-09-21T08:04:00.979Z,360.00
2018-09-21T08:05:00.986Z,1310.63
2018-09-21T08:06:00.995Z,860.63
2018-09-21T08:07:00.996Z,686.25
2018-09-21T08:08:01.034Z,230.63
2018-09-21T08:09:01.004Z,208.13
2018-09-21T08:10:01.011Z,208.13
2018-09-21T08:11:01.024Z,241.88
2018-09-21T08:12:01.022Z,421.88
2018-09-21T08:13:01.106Z,444.38
2018-09-21T08:14:01.063Z,303.75
2018-09-21T08:15:01.039Z,489.38
2018-09-21T08:16:01.046Z,585.00
2018-09-21T08:17:01.051Z,523.13
2018-09-21T08:18:01.059Z,331.88
2018-09-21T08:19:01.064Z,320.63
2018-09-21T08:20:01.067Z,253.13
2018-09-21T08:21:01.074Z,298.13
2018-09-21T08:22:01.089Z,247.50
2018-09-21T08:23:01.089Z,241.88
2018-09-21T08:24:01.093Z,275.63
2018-09-21T08:25:01.103Z,258.75
2018-09-21T08:26:01.104Z,275.63
2018-09-21T08:27:01.114Z,331.88
2018-09-21T08:28:01.117Z,388.13
2018-09-21T08:29:01.121Z,281.25
2018-09-21T08:30:01.128Z,225.00
2018-09-21T08:31:01.135Z,230.63
2018-09-21T08:32:01.141Z,315.00
2018-09-21T08:33:01.174Z,438.75
2018-09-21T08:34:01.156Z,630.00
2018-09-21T08:35:01.161Z,331.88
2018-09-21T08:36:01.174Z,410.63
2018-09-21T08:37:01.206Z,770.63
2018-09-21T08:38:01.212Z,832.50
2018-09-21T08:58:16.398Z,180.00
2018-09-21T08:59:16.126Z,202.50
2018-09-21T09:01:10.136Z,427.50
2018-09-21T09:02:10.035Z,270.00
2018-09-21T09:04:03.739Z,253.13
2018-09-21T09:05:03.635Z,630.00
2018-09-21T09:06:57.122Z,140.63
2018-09-21T09:07:57.060Z,118.13
2018-09-21T09:09:50.044Z,478.13
2018-09-21T09:10:49.855Z,196.88
2018-09-21T09:12:42.907Z,680.63
2018-09-21T09:13:42.575Z,776.25
2018-09-21T09:15:35.696Z,776.25
2018-09-21T09:16:38.325Z,720.00
2018-09-21T09:18:28.805Z,253.13
2018-09-21T09:19:28.678Z,264.38
2018-09-21T09:21:22.289Z,168.75
2018-09-21T09:22:21.815Z,213.75
2018-09-21T09:24:15.671Z,427.50
2018-09-21T09:25:15.477Z,511.88
2018-09-21T09:27:09.016Z,466.88
2018-09-21T09:28:08.816Z,573.75
2018-09-21T09:30:02.595Z,770.63
2018-09-21T09:31:02.230Z,714.38
2018-09-21T09:32:55.486Z,826.88
2018-09-21T09:33:56.017Z,596.25
2018-09-21T09:35:48.297Z,202.50
2018-09-21T09:36:48.149Z,174.38
2018-09-21T09:38:41.268Z,151.88
2018-09-21T09:39:41.269Z,157.50
2018-09-21T09:41:33.983Z,281.25
2018-09-21T09:42:33.876Z,736.88
2018-09-21T09:44:27.565Z,708.75
2018-09-21T09:45:27.049Z,905.63
2018-09-21T09:47:20.451Z,1901.25
2018-09-21T09:48:20.503Z,2531.25
2018-09-21T09:50:14.384Z,1648.13
2018-09-21T09:51:13.842Z,922.50
2018-09-21T09:53:06.602Z,382.50
2018-09-21T09:54:06.371Z,270.00
2018-09-21T09:56:00.066Z,185.63
2018-09-21T09:57:00.077Z,191.25
2018-09-21T09:58:52.823Z,157.50
2018-09-21T09:59:52.647Z,151.88
2018-09-21T10:01:46.038Z,191.25
2018-09-21T10:02:45.604Z,191.25
2018-09-21T10:04:38.758Z,236.25
2018-09-21T10:05:38.474Z,225.00
2018-09-21T10:07:31.682Z,219.38
2018-09-21T10:08:31.328Z,208.13
2018-09-21T10:10:24.903Z,140.63
2018-09-21T10:11:24.773Z,241.88
2018-09-21T10:13:18.624Z,230.63
2018-09-21T10:14:18.244Z,185.63
2018-09-21T10:16:11.590Z,174.38
2018-09-21T10:17:11.139Z,213.75
2018-09-21T10:19:04.524Z,286.88
2018-09-21T10:20:04.528Z,309.38
2018-09-21T10:21:57.453Z,247.50
2018-09-21T10:22:57.444Z,157.50
2018-09-21T10:24:51.541Z,174.38
2018-09-21T10:25:51.427Z,298.13
2018-09-21T10:27:44.677Z,230.63
2018-09-21T10:28:44.431Z,253.13
2018-09-21T10:30:37.435Z,225.00
2018-09-21T10:31:37.132Z,213.75
2018-09-21T10:33:30.432Z,174.38
2018-09-21T10:34:30.095Z,264.38
2018-09-21T10:36:23.679Z,365.63
2018-09-21T10:37:23.429Z,354.38
2018-09-21T10:39:16.907Z,326.25
2018-09-21T10:40:16.887Z,286.88
2018-09-21T10:42:11.173Z,270.00
2018-09-21T10:43:10.461Z,270.00
2018-09-21T10:45:04.100Z,286.88
2018-09-21T10:46:03.774Z,315.00
2018-09-21T10:47:57.046Z,315.00
2018-09-21T10:48:56.783Z,303.75
2018-09-21T10:50:50.498Z,292.50
2018-09-21T10:51:49.603Z,292.50
2018-09-21T10:52:49.686Z,275.63
2018-09-21T10:53:49.601Z,208.13
2018-09-21T10:54:49.601Z,191.25
2018-09-21T10:55:49.602Z,185.63
2018-09-21T10:56:49.625Z,180.00
2018-09-21T10:57:49.610Z,191.25
2018-09-21T10:58:49.681Z,196.88
2018-09-21T10:59:49.627Z,208.13
2018-09-21T11:00:49.638Z,213.75
2018-09-21T11:01:49.847Z,196.88
2018-09-21T11:02:49.646Z,180.00
2018-09-21T11:03:49.653Z,163.13
2018-09-21T11:04:49.673Z,163.13
2018-09-21T11:05:49.674Z,157.50
2018-09-21T11:06:49.670Z,151.88
2018-09-21T11:07:57.233Z,163.13
2018-09-21T11:09:42.768Z,202.50
2018-09-21T11:10:42.621Z,225.00
2018-09-21T11:12:35.737Z,264.38
2018-09-21T11:13:35.525Z,258.75
2018-09-21T11:15:28.666Z,241.88
2018-09-21T11:16:28.359Z,213.75
2018-09-21T11:18:21.521Z,202.50
2018-09-21T11:19:21.432Z,213.75
2018-09-21T11:21:14.901Z,213.75
2018-09-21T11:22:14.846Z,219.38
2018-09-21T11:24:08.310Z,208.13
2018-09-21T11:25:08.223Z,196.88
2018-09-21T11:27:01.799Z,202.50
2018-09-21T11:28:01.652Z,196.88
2018-09-21T11:29:54.907Z,213.75
2018-09-21T11:30:54.600Z,196.88
2018-09-21T11:32:47.625Z,219.38
2018-09-21T11:33:47.565Z,213.75
2018-09-21T11:35:40.639Z,208.13
2018-09-21T11:36:40.452Z,213.75
2018-09-21T11:38:33.833Z,208.13
2018-09-21T11:39:33.738Z,236.25
2018-09-21T11:41:26.546Z,236.25
2018-09-21T11:42:26.465Z,225.00
2018-09-21T11:44:19.963Z,180.00
2018-09-21T11:45:19.955Z,163.13
2018-09-21T11:47:13.881Z,168.75
2018-09-21T11:48:13.369Z,168.75
2018-09-21T11:50:07.187Z,191.25
2018-09-21T11:51:06.733Z,230.63
2018-09-21T11:53:00.017Z,208.13
2018-09-21T11:53:59.650Z,208.13
2018-09-21T11:55:52.910Z,168.75
2018-09-21T11:56:52.956Z,185.63
2018-09-21T11:58:46.321Z,185.63
2018-09-21T11:59:45.911Z,174.38
2018-09-21T12:01:39.222Z,219.38
2018-09-21T12:02:38.924Z,219.38
2018-09-21T12:04:32.217Z,191.25
2018-09-21T12:05:31.759Z,174.38
2018-09-21T12:07:25.267Z,129.38
2018-09-21T12:08:24.634Z,135.00
2018-09-21T12:10:17.959Z,163.13
2018-09-21T12:11:17.617Z,151.88
2018-09-21T12:13:10.836Z,135.00
2018-09-21T12:14:10.540Z,140.63
2018-09-21T12:16:03.553Z,135.00
2018-09-21T12:17:03.380Z,129.38
2018-09-21T12:18:57.098Z,135.00
2018-09-21T12:19:56.781Z,135.00
2018-09-21T12:21:50.452Z,129.38
2018-09-21T12:22:49.822Z,123.75
2018-09-21T12:24:42.995Z,106.88
2018-09-21T12:25:44.440Z,95.63
2018-09-21T12:27:36.403Z,95.63
2018-09-21T12:28:36.357Z,101.25
2018-09-21T12:30:28.741Z,101.25
2018-09-21T12:31:28.721Z,123.75
2018-09-21T12:33:29.790Z,118.13
2018-09-21T12:34:29.054Z,123.75
2018-09-21T12:36:15.635Z,140.63
2018-09-21T12:37:17.459Z,157.50
2018-09-21T12:39:09.783Z,163.13
2018-09-21T12:40:09.039Z,163.13
2018-09-21T12:42:02.070Z,146.25
2018-09-21T12:43:02.626Z,140.63
2018-09-21T12:44:02.531Z,135.00
2018-09-21T12:45:02.007Z,129.38
2018-09-21T12:46:01.951Z,123.75
2018-09-21T12:47:01.805Z,118.13
2018-09-21T12:48:02.188Z,112.50
2018-09-21T12:49:01.784Z,106.88
2018-09-21T12:50:03.593Z,106.88
2018-09-21T12:51:02.649Z,106.88
2018-09-21T12:52:01.839Z,101.25
2018-09-21T12:53:01.664Z,95.63
2018-09-21T12:54:01.676Z,90.00
2018-09-21T12:55:01.677Z,84.38
2018-09-21T12:56:01.681Z,78.75
2018-09-21T12:57:01.689Z,78.75
2018-09-21T12:58:01.881Z,78.75
2018-09-21T12:59:01.702Z,78.75
2018-09-21T13:00:01.708Z,84.38
2018-09-21T13:01:01.710Z,90.00
2018-09-21T13:02:01.788Z,90.00
2018-09-21T13:03:01.726Z,90.00
2018-09-21T13:04:01.727Z,84.38
2018-09-21T13:05:01.782Z,78.75
2018-09-21T13:06:01.738Z,78.75
2018-09-21T13:07:01.761Z,73.13
2018-09-21T13:08:03.661Z,73.13
2018-09-21T13:09:01.754Z,78.75
2018-09-21T13:10:01.766Z,78.75
2018-09-21T13:11:01.763Z,78.75
2018-09-21T13:12:01.770Z,78.75
2018-09-21T13:13:01.781Z,84.38
2018-09-21T13:14:01.787Z,84.38
2018-09-21T13:15:03.674Z,84.38
2018-09-21T13:16:01.792Z,84.38
2018-09-21T13:17:01.798Z,84.38
2018-09-21T13:18:01.806Z,95.63
2018-09-21T13:19:03.668Z,95.63
2018-09-21T13:20:01.819Z,101.25
2018-09-21T13:21:01.819Z,101.25
2018-09-21T13:22:01.823Z,101.25
2018-09-21T13:23:01.843Z,101.25
2018-09-21T13:24:01.838Z,101.25
2018-09-21T13:25:01.844Z,101.25
2018-09-21T13:26:01.845Z,101.25
2018-09-21T13:27:01.867Z,101.25
2018-09-21T13:28:01.858Z,106.88
2018-09-21T13:29:01.862Z,106.88
2018-09-21T13:30:01.867Z,106.88
2018-09-21T13:31:03.668Z,101.25
2018-09-21T13:32:01.887Z,101.25
2018-09-21T13:33:01.882Z,90.00
2018-09-21T13:34:01.902Z,90.00
2018-09-21T13:35:03.669Z,73.13
2018-09-21T13:36:01.908Z,73.13
2018-09-21T13:37:01.951Z,67.50
2018-09-21T13:38:01.909Z,61.88
2018-09-21T13:39:01.926Z,61.88
2018-09-21T13:40:01.955Z,61.88
2018-09-21T13:41:01.931Z,61.88
2018-09-21T13:42:01.944Z,61.88
2018-09-21T13:43:01.939Z,61.88
2018-09-21T13:44:01.945Z,61.88
2018-09-21T13:45:01.947Z,67.50
2018-09-21T13:46:01.970Z,67.50
2018-09-21T13:47:01.972Z,67.50
2018-09-21T13:48:03.672Z,67.50
2018-09-21T13:49:01.965Z,67.50
2018-09-21T13:50:01.973Z,67.50
2018-09-21T13:51:01.978Z,67.50
2018-09-21T13:52:02.017Z,61.88
2018-09-21T13:53:01.990Z,56.25
2018-09-21T13:54:03.680Z,50.63
2018-09-21T13:55:02.009Z,50.63
2018-09-21T13:56:03.676Z,45.00
2018-09-21T13:57:02.011Z,33.75
2018-09-21T13:58:02.018Z,28.13
2018-09-21T13:59:03.675Z,28.13
2018-09-21T14:00:09.643Z,22.50
2018-09-21T14:01:55.143Z,11.25
2018-09-21T14:02:55.386Z,16.88
2018-09-21T14:04:48.690Z,16.88
2018-09-21T14:05:48.507Z,16.88
2018-09-21T14:07:41.812Z,11.25
2018-09-21T14:08:41.404Z,11.25
2018-09-21T14:10:34.766Z,11.25
2018-09-21T14:11:34.722Z,11.25
2018-09-21T14:13:27.493Z,11.25
2018-09-21T14:14:27.515Z,11.25
2018-09-21T14:16:21.077Z,11.25
2018-09-21T14:17:20.757Z,11.25
2018-09-21T14:19:13.621Z,11.25
2018-09-21T14:20:13.586Z,11.25
2018-09-21T14:22:06.831Z,11.25
2018-09-21T14:23:06.557Z,16.88
2018-09-21T14:25:00.030Z,16.88
2018-09-21T14:25:59.835Z,16.88
2018-09-21T14:27:52.810Z,22.50
2018-09-21T14:28:52.698Z,22.50
2018-09-21T14:30:45.608Z,33.75
2018-09-21T14:31:45.574Z,33.75
2018-09-21T14:33:38.662Z,33.75
2018-09-21T14:34:38.458Z,33.75
2018-09-21T14:36:31.813Z,28.13
2018-09-21T14:37:31.492Z,28.13
2018-09-21T14:39:24.567Z,28.13
2018-09-21T14:40:24.901Z,28.13
2018-09-21T14:42:18.032Z,33.75
2018-09-21T14:43:17.899Z,33.75
2018-09-21T14:45:11.523Z,33.75
2018-09-21T14:46:11.344Z,39.38
2018-09-21T14:48:05.849Z,39.38
2018-09-21T14:49:05.370Z,39.38
2018-09-21T14:50:58.230Z,33.75
2018-09-21T14:51:58.280Z,28.13
2018-09-21T14:53:52.033Z,22.50
2018-09-21T14:54:51.662Z,16.88
2018-09-21T14:56:44.049Z,5.63
2018-09-21T14:57:43.983Z,0.00
2018-09-21T14:59:36.645Z,5.63
2018-09-21T15:00:36.498Z,16.88
2018-09-21T15:02:29.733Z,16.88
2018-09-21T15:03:29.543Z,11.25
2018-09-21T15:05:23.167Z,16.88
2018-09-21T15:06:22.358Z,16.88
2018-09-21T15:08:15.469Z,22.50
2018-09-21T15:09:15.326Z,33.75
2018-09-21T15:11:08.362Z,33.75
2018-09-21T15:12:08.328Z,33.75
2018-09-21T15:14:01.169Z,28.13
2018-09-21T15:15:01.161Z,33.75
2018-09-21T15:16:54.298Z,33.75
2018-09-21T15:17:55.878Z,33.75
2018-09-21T15:19:47.193Z,33.75
2018-09-21T15:20:47.685Z,33.75
2018-09-21T15:22:40.006Z,28.13
2018-09-21T15:23:39.970Z,28.13
2018-09-21T15:25:33.436Z,33.75
2018-09-21T15:26:32.758Z,33.75
2018-09-21T15:28:25.739Z,28.13
2018-09-21T15:29:25.351Z,16.88
2018-09-21T15:31:19.084Z,11.25
2018-09-21T15:32:18.829Z,16.88
2018-09-21T15:34:12.679Z,22.50
2018-09-21T15:35:12.656Z,22.50
2018-09-21T15:37:06.338Z,16.88
2018-09-21T15:38:05.620Z,11.25
2018-09-21T15:39:58.837Z,11.25
2018-09-21T15:40:59.398Z,11.25
2018-09-21T15:42:52.312Z,5.63
2018-09-21T15:43:51.377Z,5.63
2018-09-21T15:44:51.599Z,5.63
2018-09-21T15:45:51.267Z,5.63
2018-09-21T15:46:51.309Z,5.63
2018-09-21T15:47:51.657Z,5.63
2018-09-21T15:48:51.641Z,5.63
2018-09-21T15:49:51.270Z,5.63
2018-09-21T15:50:51.287Z,5.63
2018-09-21T15:51:51.285Z,5.63
2018-09-21T15:52:51.309Z,5.63
2018-09-21T15:53:51.262Z,5.63
2018-09-21T15:54:51.267Z,5.63
2018-09-21T15:55:51.264Z,5.63
2018-09-21T15:56:51.275Z,5.63
2018-09-21T15:57:51.269Z,5.63
2018-09-21T15:58:51.283Z,5.63
2018-09-21T15:59:51.269Z,5.63
2018-09-21T16:00:51.266Z,5.63
2018-09-21T16:01:51.266Z,5.63
2018-09-21T16:02:51.268Z,11.25
2018-09-21T16:03:51.272Z,11.25
2018-09-21T16:04:51.270Z,11.25
2018-09-21T16:05:51.269Z,11.25
2018-09-21T16:06:51.318Z,5.63
2018-09-21T16:07:51.283Z,5.63
2018-09-21T16:08:51.268Z,11.25
2018-09-21T16:09:51.269Z,5.63
2018-09-21T16:10:51.266Z,5.63
2018-09-21T16:11:51.268Z,5.63
2018-09-21T16:12:51.267Z,5.63
2018-09-21T16:13:51.269Z,5.63
2018-09-21T16:14:51.275Z,5.63
2018-09-21T16:15:51.266Z,5.63
2018-09-21T16:16:51.269Z,5.63
2018-09-21T16:17:51.269Z,5.63
2018-09-21T16:18:51.270Z,0.00
2018-09-21T16:19:51.272Z,0.00
2018-09-21T16:21:44.328Z,5.63
2018-09-21T16:22:44.156Z,0.00
2018-09-21T16:24:37.005Z,0.00
2018-09-21T16:25:37.028Z,0.00
2018-09-21T16:27:29.965Z,0.00
2018-09-21T16:28:30.011Z,0.00
2018-09-21T16:30:22.774Z,0.00
2018-09-21T16:31:22.784Z,0.00
2018-09-21T16:33:16.074Z,0.00
2018-09-21T16:34:15.943Z,0.00
2018-09-21T16:36:09.093Z,0.00
2018-09-21T16:37:08.918Z,0.00
2018-09-21T16:39:02.430Z,0.00
2018-09-21T16:40:02.252Z,0.00
2018-09-21T16:41:55.264Z,0.00
2018-09-21T16:42:55.102Z,0.00
2018-09-21T16:44:48.049Z,0.00
2018-09-21T16:45:47.978Z,0.00
2018-09-21T16:47:40.881Z,0.00
2018-09-21T16:48:40.873Z,0.00
2018-09-21T16:50:33.705Z,0.00
2018-09-21T16:51:33.760Z,0.00
2018-09-21T16:53:26.584Z,0.00
2018-09-21T16:54:26.571Z,0.00
2018-09-21T16:56:19.991Z,0.00
2018-09-21T16:57:19.970Z,0.00
2018-09-21T16:59:13.408Z,0.00
2018-09-21T17:00:13.378Z,0.00
2018-09-21T17:02:06.344Z,0.00
2018-09-21T17:03:06.273Z,0.00
2018-09-21T17:04:59.166Z,0.00
2018-09-21T17:05:59.129Z,0.00
2018-09-21T17:06:59.129Z,0.00
2018-09-21T17:07:59.237Z,0.00
2018-09-21T17:08:59.113Z,0.00
2018-09-21T17:09:59.110Z,0.00
2018-09-21T17:10:59.109Z,0.00
2018-09-21T17:11:59.108Z,0.00
2018-09-21T17:12:59.119Z,0.00
2018-09-21T17:13:59.109Z,0.00
2018-09-21T17:14:59.110Z,0.00
2018-09-21T17:15:59.106Z,0.00
2018-09-21T17:16:59.107Z,0.00
2018-09-21T17:17:59.107Z,0.00
2018-09-21T17:18:59.107Z,0.00
2018-09-21T17:19:59.105Z,0.00
2018-09-21T17:20:59.158Z,0.00
2018-09-21T17:21:59.104Z,0.00
2018-09-21T17:22:59.107Z,0.00
2018-09-21T17:23:59.114Z,0.00
2018-09-21T17:25:08.330Z,0.00
2018-09-21T17:26:52.819Z,0.00
2018-09-21T17:27:52.629Z,0.00
2018-09-21T17:29:45.574Z,0.00
2018-09-21T17:30:45.494Z,0.00
2018-09-21T17:32:38.389Z,0.00
2018-09-21T17:33:38.314Z,0.00
2018-09-21T17:35:31.165Z,0.00
2018-09-21T17:36:31.138Z,0.00
2018-09-21T17:38:24.148Z,0.00
2018-09-21T17:39:24.038Z,0.00
2018-09-21T17:41:17.779Z,0.00
2018-09-21T17:42:17.483Z,0.00
2018-09-21T17:44:11.146Z,0.00
2018-09-21T17:45:11.224Z,0.00
2018-09-21T17:47:03.984Z,0.00
2018-09-21T17:48:03.767Z,0.00
2018-09-21T17:49:56.792Z,0.00
2018-09-21T17:50:56.742Z,0.00
2018-09-21T17:52:49.662Z,0.00
2018-09-21T17:53:49.495Z,0.00
2018-09-21T17:55:43.247Z,0.00
2018-09-21T17:56:42.455Z,0.00
2018-09-21T17:58:35.445Z,0.00
2018-09-21T17:59:35.359Z,0.00
2018-09-21T18:01:28.393Z,0.00
2018-09-21T18:02:28.206Z,0.00
2018-09-21T18:04:21.412Z,0.00
2018-09-21T18:05:22.660Z,0.00
2018-09-21T18:07:14.291Z,0.00
2018-09-21T18:08:14.055Z,0.00
2018-09-21T18:10:07.800Z,0.00
2018-09-21T18:11:07.479Z,0.00
2018-09-21T18:13:00.583Z,0.00
2018-09-21T18:14:00.239Z,0.00
2018-09-21T18:15:53.275Z,0.00
2018-09-21T18:16:53.271Z,0.00
2018-09-21T18:18:46.315Z,0.00
2018-09-21T18:19:46.021Z,0.00
2018-09-21T18:21:38.934Z,0.00
2018-09-21T18:22:38.799Z,0.00
2018-09-21T18:24:33.112Z,0.00
2018-09-21T18:25:31.816Z,0.00
2018-09-21T18:27:25.088Z,0.00
2018-09-21T18:28:32.026Z,0.00
2018-09-21T18:30:18.341Z,0.00
2018-09-21T18:31:18.339Z,0.00
2018-09-21T18:32:38.232Z,0.00
2018-09-21T18:33:38.346Z,0.00
2018-09-21T18:35:31.094Z,0.00
2018-09-21T18:36:31.025Z,0.00
2018-09-21T18:37:30.952Z,0.00
2018-09-21T18:38:31.027Z,0.00
2018-09-21T18:39:38.321Z,0.00
2018-09-21T18:41:25.627Z,0.00
2018-09-21T18:42:23.909Z,0.00
2018-09-21T18:44:16.879Z,0.00
2018-09-21T18:45:16.688Z,0.00
2018-09-21T18:47:10.389Z,0.00
2018-09-21T18:48:10.150Z,0.00
2018-09-21T18:50:03.785Z,0.00
2018-09-21T18:51:03.591Z,0.00
2018-09-21T18:52:56.803Z,0.00
2018-09-21T18:53:56.515Z,0.00
2018-09-21T18:55:49.613Z,0.00
2018-09-21T18:56:49.597Z,0.00
2018-09-21T18:58:42.611Z,0.00
2018-09-21T18:59:44.093Z,0.00
2018-09-21T19:01:35.514Z,0.00
2018-09-21T19:02:35.440Z,0.00
2018-09-21T19:04:29.030Z,0.00
2018-09-21T19:05:27.931Z,0.00
2018-09-21T19:06:28.240Z,0.00
2018-09-21T19:07:29.870Z,0.00
2018-09-21T19:08:27.903Z,0.00
2018-09-21T19:09:27.886Z,0.00
2018-09-21T19:10:27.886Z,0.00
2018-09-21T19:11:36.533Z,0.00
2018-09-21T19:13:21.386Z,0.00
2018-09-21T19:14:29.098Z,0.00
2018-09-21T19:16:14.109Z,0.00
2018-09-21T19:17:14.294Z,0.00
2018-09-21T19:19:07.603Z,0.00
2018-09-21T19:20:08.613Z,0.00
2018-09-21T19:22:00.747Z,0.00
2018-09-21T19:23:00.161Z,0.00
2018-09-21T19:24:53.225Z,0.00
2018-09-21T19:25:53.821Z,0.00
2018-09-21T19:27:46.160Z,0.00
2018-09-21T19:28:45.973Z,0.00
2018-09-21T19:30:39.629Z,0.00
2018-09-21T19:31:39.367Z,0.00
2018-09-21T19:33:32.126Z,0.00
2018-09-21T19:34:32.089Z,0.00
2018-09-21T19:36:24.995Z,0.00
2018-09-21T19:37:24.910Z,0.00
2018-09-21T19:39:18.341Z,0.00
2018-09-21T19:40:18.088Z,0.00
2018-09-21T19:42:14.911Z,0.00
2018-09-21T19:43:12.939Z,0.00
2018-09-21T19:45:05.016Z,0.00
2018-09-21T19:46:04.960Z,0.00
2018-09-21T19:47:57.848Z,0.00
2018-09-21T19:48:57.907Z,0.00
2018-09-21T19:50:51.707Z,0.00
2018-09-21T19:51:50.726Z,0.00
2018-09-21T19:53:44.131Z,0.00
2018-09-21T19:54:44.592Z,0.00
2018-09-21T19:56:38.896Z,0.00
2018-09-21T19:57:36.424Z,0.00
2018-09-21T19:59:31.094Z,0.00
2018-09-21T20:00:29.832Z,0.00
2018-09-21T20:02:24.307Z,0.00
2018-09-21T20:03:23.817Z,0.00
2018-09-21T20:05:15.962Z,0.00
2018-09-21T20:06:17.039Z,0.00
2018-09-21T20:07:16.203Z,0.00
2018-09-21T20:08:17.268Z,0.00
2018-09-21T20:09:16.540Z,0.00
2018-09-21T20:10:15.680Z,0.00
2018-09-21T20:11:17.042Z,0.00
2018-09-21T20:12:16.720Z,0.00
2018-09-21T20:13:17.070Z,0.00
2018-09-21T20:14:16.193Z,0.00
2018-09-21T20:15:16.538Z,0.00
2018-09-21T20:16:15.665Z,0.00
2018-09-21T20:17:16.117Z,0.00
2018-09-21T20:18:16.595Z,0.00
2018-09-21T20:19:18.153Z,0.00
2018-09-21T20:20:15.729Z,0.00
2018-09-21T20:21:16.578Z,0.00
2018-09-21T20:22:15.570Z,0.00
2018-09-21T20:23:15.428Z,0.00
2018-09-21T20:24:15.192Z,0.00
2018-09-21T20:25:15.239Z,0.00
2018-09-21T20:26:15.195Z,0.00
2018-09-21T20:27:15.163Z,0.00
2018-09-21T20:28:15.239Z,0.00
2018-09-21T20:29:15.155Z,0.00
2018-09-21T20:30:15.156Z,0.00
2018-09-21T20:31:15.176Z,0.00
2018-09-21T20:32:15.180Z,0.00
2018-09-21T20:33:15.152Z,0.00
2018-09-21T20:34:15.150Z,0.00
2018-09-21T20:35:15.149Z,0.00
2018-09-21T20:36:15.142Z,0.00
2018-09-21T20:37:15.157Z,0.00
2018-09-21T20:38:15.184Z,0.00
2018-09-21T20:39:15.140Z,0.00
2018-09-21T20:40:15.163Z,0.00
2018-09-21T20:41:15.149Z,0.00
2018-09-21T20:42:15.169Z,0.00
2018-09-21T20:43:15.182Z,0.00
2018-09-21T20:44:15.147Z,0.00
2018-09-21T20:45:15.150Z,0.00
2018-09-21T20:46:15.127Z,0.00
2018-09-21T20:47:15.165Z,0.00
2018-09-21T20:48:15.124Z,0.00
2018-09-21T20:49:15.123Z,0.00
2018-09-21T20:50:15.121Z,0.00
2018-09-21T20:51:15.203Z,0.00
2018-09-21T20:52:15.160Z,0.00
2018-09-21T20:53:15.147Z,0.00
2018-09-21T20:54:15.119Z,0.00
2018-09-21T20:55:15.116Z,0.00
2018-09-21T20:56:15.119Z,0.00
2018-09-21T20:57:15.128Z,0.00
2018-09-21T20:58:15.106Z,0.00
2018-09-21T20:59:15.173Z,0.00
2018-09-21T21:00:15.105Z,0.00
2018-09-21T21:01:15.107Z,0.00
2018-09-21T21:02:15.110Z,0.00
2018-09-21T21:03:15.103Z,0.00
2018-09-21T21:04:15.101Z,0.00
2018-09-21T21:05:15.137Z,0.00
2018-09-21T21:06:15.099Z,0.00
2018-09-21T21:07:15.128Z,0.00
2018-09-21T21:08:15.090Z,0.00
2018-09-21T21:09:15.109Z,0.00
2018-09-21T21:10:15.091Z,0.00
2018-09-21T21:11:15.091Z,0.00
2018-09-21T21:12:15.086Z,0.00
2018-09-21T21:13:15.134Z,0.00
2018-09-21T21:14:15.146Z,0.00
2018-09-21T21:15:15.082Z,0.00
2018-09-21T21:16:15.121Z,0.00
2018-09-21T21:17:15.079Z,0.00
2018-09-21T21:18:15.077Z,0.00
2018-09-21T21:19:15.080Z,0.00
2018-09-21T21:20:15.114Z,0.00
2018-09-21T21:21:15.088Z,0.00
2018-09-21T21:22:15.075Z,0.00
2018-09-21T21:23:15.092Z,0.00
2018-09-21T21:24:15.067Z,0.00
2018-09-21T21:25:15.095Z,0.00
2018-09-21T21:26:15.064Z,0.00
2018-09-21T21:27:15.110Z,0.00
2018-09-21T21:28:15.089Z,0.00
2018-09-21T21:29:15.117Z,0.00
2018-09-21T21:30:15.084Z,0.00
2018-09-21T21:31:15.092Z,0.00
2018-09-21T21:32:15.091Z,0.00
2018-09-21T21:33:15.086Z,0.00
2018-09-21T21:34:15.103Z,0.00
2018-09-21T21:35:15.076Z,0.00
2018-09-21T21:36:15.146Z,0.00
2018-09-21T21:37:15.125Z,0.00
2018-09-21T21:38:15.041Z,0.00
2018-09-21T21:39:15.118Z,0.00
2018-09-21T21:40:15.136Z,0.00
2018-09-21T21:41:15.066Z,0.00
2018-09-21T21:42:15.039Z,0.00
2018-09-21T21:43:15.042Z,0.00
2018-09-21T21:44:15.081Z,0.00
2018-09-21T21:45:15.056Z,0.00
2018-09-21T21:46:15.069Z,0.00
2018-09-21T21:47:15.072Z,0.00
2018-09-21T21:48:15.025Z,0.00
2018-09-21T21:49:15.052Z,0.00
2018-09-21T21:50:15.051Z,0.00
2018-09-21T21:51:15.044Z,0.00
2018-09-21T21:52:15.036Z,0.00
2018-09-21T21:53:15.018Z,0.00
2018-09-21T21:54:15.048Z,0.00
2018-09-21T21:55:15.012Z,0.00
2018-09-21T21:56:15.034Z,0.00
2018-09-21T21:57:15.015Z,0.00
2018-09-21T21:58:15.039Z,0.00
2018-09-21T21:59:15.007Z,0.00
2018-09-21T22:00:15.006Z,0.00
2018-09-21T22:01:15.001Z,0.00
2018-09-21T22:02:15.002Z,0.00
2018-09-21T22:03:14.998Z,0.00
2018-09-21T22:04:15.000Z,0.00
2018-09-21T22:05:15.005Z,0.00
2018-09-21T22:06:14.995Z,0.00
2018-09-21T22:07:15.000Z,0.00
2018-09-21T22:08:15.000Z,0.00
2018-09-21T22:09:14.992Z,0.00
2018-09-21T22:10:15.021Z,0.00
2018-09-21T22:11:14.985Z,0.00
2018-09-21T22:12:14.986Z,0.00
2018-09-21T22:13:14.981Z,0.00
2018-09-21T22:14:15.002Z,0.00
2018-09-21T22:15:16.654Z,0.00
2018-09-21T22:16:14.985Z,0.00
2018-09-21T22:17:15.028Z,0.00
2018-09-21T22:18:14.972Z,0.00
2018-09-21T22:19:14.975Z,0.00
2018-09-21T22:20:14.970Z,0.00
2018-09-21T22:21:14.967Z,0.00
2018-09-21T22:22:14.966Z,0.00
2018-09-21T22:23:14.965Z,0.00
2018-09-21T22:24:14.961Z,0.00
2018-09-21T22:25:14.958Z,0.00
2018-09-21T22:26:15.011Z,0.00
2018-09-21T22:27:14.961Z,0.00
2018-09-21T22:28:14.951Z,0.00
2018-09-21T22:29:15.010Z,0.00
2018-09-21T22:30:14.966Z,0.00
2018-09-21T22:31:14.949Z,0.00
2018-09-21T22:32:14.944Z,0.00
2018-09-21T22:33:14.945Z,0.00
2018-09-21T22:34:14.944Z,0.00
2018-09-21T22:35:14.939Z,0.00
2018-09-21T22:36:14.940Z,0.00
2018-09-21T22:37:14.940Z,0.00
2018-09-21T22:38:14.952Z,0.00
2018-09-21T22:39:14.929Z,0.00
2018-09-21T22:40:14.927Z,0.00
2018-09-21T22:41:14.933Z,0.00
2018-09-21T22:42:14.927Z,0.00
2018-09-21T22:43:14.960Z,0.00
2018-09-21T22:44:14.988Z,0.00
2018-09-21T22:45:14.978Z,0.00
2018-09-21T22:46:14.916Z,0.00